Thunder radar more information blitzortung!


Radar de pluja more information rain snow radar


Visita la nostra xarxa de llocs de meteo:

Template documentation
and downloads

And another site



No particular awareness of the weather is required.    There are no Weather-warnings

Pagina Historial Weather Underground text

Diari Resum Octubre 18, 2017 Unitats:  Mètric    Imperial   Tant
« Previous Dia
SegĂźent Dia »
Diari Setmana Mensual Anual Personalitzada
  Maxima: Minima: Media:
Temperatura: -17.8 °C -10.1 °C -7.8 °C
Punt de rosada: -17.8 °C -12 °C -10.1 °C
Humitat: Humidity % 59 % 78 %
Wind Speed: 0 km/h 0 km/h 10 km/h
RĂ fegues de vent: 0 km/h - -
Vent:- - East
Pression baro: 0 hPa 34198.6 hPa -
Precipitacions: 297.18 mm    
Historical Graphs
 
 
Dades de taula per Octubre 18, 2017
Temps Temperatura Punt de rosada Pression baro Vent Wind Speed RĂ fegues de vent Humitat Rainfall Rate (Hourly)
-17.8 °C -17.8 °C 0 hPa Calm     Humidity % 0 mm
00:05 -8.8 °C -10.6 °C 34462.7 hPa NE 2.6 km/h 7.7 km/h 82 % 0 mm
00:15 -8.8 °C -10.6 °C 34462.7 hPa Calm   2.6 km/h 82 % 0 mm
00:25 -8.8 °C -10.5 °C 34462.7 hPa Calm     82 % 0 mm
00:35 -8.8 °C -10.5 °C 34428.8 hPa Calm     82 % 0 mm
00:45 -8.8 °C -10.5 °C 34428.8 hPa Calm     82 % 0 mm
00:55 -8.8 °C -10.6 °C 34428.8 hPa WNW 2.6 km/h 2.6 km/h 82 % 0 mm
01:10 -8.8 °C -10.6 °C 34395 hPa WNW 2.6 km/h 2.6 km/h 82 % 0 mm
01:20 -8.8 °C -10.6 °C 34395 hPa Calm   2.6 km/h 82 % 0 mm
01:30 -8.9 °C -10.7 °C 34395 hPa Calm   5.1 km/h 82 % 0 mm
01:40 -9 °C -10.7 °C 34395 hPa Calm     82 % 0 mm
01:50 -8.9 °C -10.7 °C 34395 hPa South 2.6 km/h 2.6 km/h 82 % 0 mm
02:00 -8.9 °C -10.6 °C 34395 hPa Calm     83 % 0 mm
02:10 -8.9 °C -10.5 °C 34395 hPa Calm     83 % 0 mm
02:20 -8.9 °C -10.5 °C 34395 hPa South 2.6 km/h 2.6 km/h 83 % 0 mm
02:30 -8.9 °C -10.5 °C 34395 hPa SSE 2.6 km/h 2.6 km/h 83 % 0 mm
02:40 -8.9 °C -10.6 °C 34395 hPa East 2.6 km/h 5.1 km/h 83 % 0 mm
02:50 -8.9 °C -10.6 °C 34395 hPa Calm   2.6 km/h 83 % 0 mm
03:00 -9 °C -10.6 °C 34395 hPa Calm     83 % 0 mm
03:10 -8.9 °C -10.4 °C 34395 hPa West 2.6 km/h 5.1 km/h 84 % 0 mm
03:20 -9 °C -10.5 °C 34395 hPa Calm     84 % 0 mm
03:30 -9.1 °C -10.6 °C 34395 hPa ENE 5.1 km/h 5.1 km/h 84 % 0 mm
03:40 -9.2 °C -10.7 °C 34395 hPa SSW 2.6 km/h 5.1 km/h 84 % 0 mm
03:50 -9.2 °C -10.7 °C 34395 hPa Calm   2.6 km/h 84 % 0 mm
04:00 -9 °C -10.5 °C 34395 hPa Calm   5.1 km/h 84 % 0 mm
04:10 -8.9 °C -10.3 °C 34395 hPa ENE 2.6 km/h 5.1 km/h 85 % 0 mm
04:20 -8.7 °C -10.2 °C 34395 hPa NE 5.1 km/h 7.7 km/h 84 % 0 mm
04:30 -8.4 °C -9.9 °C 34395 hPa NE 2.6 km/h 5.1 km/h 84 % 0 mm
04:40 -8.2 °C -9.9 °C 34395 hPa NE 2.6 km/h 5.1 km/h 82 % 0 mm
04:50 -7.8 °C -9.7 °C 34395 hPa Calm   2.6 km/h 81 % 0 mm
05:00 -7.6 °C -9.7 °C 34395 hPa East 2.6 km/h 5.1 km/h 79 % 0 mm
05:10 -7.7 °C -9.9 °C 34395 hPa NE 2.6 km/h 5.1 km/h 78 % 0 mm
05:20 -7.8 °C -9.9 °C 34395 hPa NNE 7.7 km/h 10.3 km/h 78 % 0 mm
05:30 -7.7 °C -9.9 °C 34361.1 hPa NE 5.1 km/h 10.3 km/h 78 % 0 mm
10:33 -7.6 °C -9.8 °C 34361.1 hPa East 7.6 km/h 7.6 km/h 78 % 0 mm
10:34 -7.6 °C -9.8 °C 34361.1 hPa East 7.6 km/h 7.6 km/h 78 % 0 mm
10:36 -7.6 °C -9.7 °C 34361.1 hPa NE 6.8 km/h 6.8 km/h 78 % 0 mm
10:41 -7.5 °C -9.7 °C 34395 hPa ENE 11.9 km/h 11.9 km/h 78 % 0 mm
10:51 -7.2 °C -9.6 °C 34395 hPa NNE 6 km/h 6 km/h 76 % 0 mm
10:56 -6.9 °C -9.3 °C 34361.1 hPa NW 6 km/h   76 % 0 mm
11:01 -6.7 °C -9.3 °C 34361.1 hPa ESE 5.6 km/h 5.6 km/h 74 % 0 mm
11:06 -6.4 °C -9.1 °C 34361.1 hPa ENE 6.3 km/h 6.3 km/h 74 % 0 mm
11:11 -6.3 °C -9.1 °C 34395 hPa NNE 9 km/h 9 km/h 73 % 0 mm
11:16 -6.2 °C -9.1 °C 34395 hPa East 8.5 km/h 8.5 km/h 72 % 0 mm
11:21 -6.2 °C -9.1 °C 34395 hPa NNE 9 km/h 9 km/h 72 % 0 mm
11:26 -6.1 °C -9.1 °C 34395 hPa ESE 11.1 km/h 11.1 km/h 71 % 0 mm
11:27 -6.2 °C -9.2 °C 34395 hPa ENE 11.9 km/h 11.9 km/h 71 % 0 mm
11:32 -6.1 °C -9 °C 34395 hPa ENE 11.9 km/h 11.9 km/h 72 % 0 mm
11:37 -6.1 °C -9.1 °C 34395 hPa ESE 6 km/h 6 km/h 71 % 0 mm
11:42 -6.1 °C -9.3 °C 34395 hPa East 15 km/h 15 km/h 70 % 0 mm
11:47 -6.1 °C -9.1 °C 34395 hPa ENE 12.7 km/h 12.7 km/h 71 % 0 mm
11:52 -6 °C -9.1 °C 34395 hPa ENE 11.9 km/h 11.9 km/h 71 % 0 mm
11:57 -5.9 °C -9 °C 34361.1 hPa East 11.9 km/h 11.9 km/h 71 % 0 mm
12:02 -5.9 °C -9.1 °C 34361.1 hPa ENE 6 km/h 6 km/h 70 % 0 mm
12:07 -6 °C -9.2 °C 34361.1 hPa ESE 17.9 km/h 17.9 km/h 70 % 0 mm
12:12 -5.7 °C -9 °C 34361.1 hPa ESE 15 km/h 15 km/h 69 % 0 mm
12:17 -5.7 °C -9 °C 34361.1 hPa ESE 15.6 km/h 15.6 km/h 69 % 0 mm
12:22 -5.6 °C -8.8 °C 34361.1 hPa East 11.9 km/h 11.9 km/h 70 % 0 mm
12:27 -5.3 °C -8.9 °C 34361.1 hPa ESE 15 km/h 15 km/h 67 % 0 mm
12:32 -5.3 °C -9 °C 34361.1 hPa ESE 17.9 km/h 17.9 km/h 66 % 0 mm
12:37 -5.4 °C -9.2 °C 34361.1 hPa ENE 23.8 km/h 23.8 km/h 65 % 0 mm
12:42 -5.4 °C -9.3 °C 34361.1 hPa ESE 20.9 km/h 20.9 km/h 64 % 0 mm
12:47 -5.2 °C -9.2 °C 34361.1 hPa ESE 23.8 km/h 23.8 km/h 64 % 0 mm
12:52 -5.1 °C -9.2 °C 34361.1 hPa ENE 20.9 km/h 20.9 km/h 63 % 0 mm
12:57 -5.2 °C -9.4 °C 34327.3 hPa East 29.8 km/h 29.8 km/h 62 % 0 mm
13:02 -5.2 °C -9.4 °C 34327.3 hPa ESE 26.9 km/h 26.9 km/h 62 % 0 mm
13:07 -5.2 °C -9.6 °C 34327.3 hPa ESE 19.2 km/h 19.2 km/h 61 % 0 mm
13:12 -4.9 °C -9.3 °C 34293.4 hPa ESE 23.8 km/h 23.8 km/h 61 % 0 mm
13:17 -5.2 °C -9.7 °C 34293.4 hPa ESE 20.9 km/h 20.9 km/h 60 % 0 mm
13:22 -5.3 °C -9.8 °C 34293.4 hPa ESE 11.9 km/h 11.9 km/h 60 % 0 mm
13:27 -5.2 °C -9.8 °C 34327.3 hPa East 26.9 km/h 26.9 km/h 60 % 0 mm
13:32 -5.2 °C -9.8 °C 34327.3 hPa East 23.8 km/h 23.8 km/h 60 % 0 mm
13:37 -5.3 °C -9.8 °C 34327.3 hPa SE 22 km/h 22 km/h 60 % 0 mm
13:42 -5.2 °C -9.6 °C 34361.1 hPa ESE 14 km/h 14 km/h 61 % 0 mm
13:47 -5.3 °C -9.8 °C 34361.1 hPa ENE 26.9 km/h 26.9 km/h 60 % 0 mm
13:52 -5.3 °C -10 °C 34361.1 hPa SE 23.8 km/h 23.8 km/h 59 % 0 mm
13:57 -5.3 °C -10 °C 34361.1 hPa ESE 15 km/h 15 km/h 59 % 0 mm
14:02 -5.4 °C -10.1 °C 34361.1 hPa ESE 20.9 km/h 20.9 km/h 59 % 0 mm
14:07 -5.5 °C -10.2 °C 34361.1 hPa ESE 15 km/h 15 km/h 59 % 0 mm
14:12 -5.5 °C -10.2 °C 34327.3 hPa ESE 15 km/h 15 km/h 59 % 0 mm
14:17 -5.5 °C -10.1 °C 34327.3 hPa ESE 17.9 km/h 17.9 km/h 60 % 0 mm
14:22 -5.7 °C -10.1 °C 34327.3 hPa ESE 19.6 km/h 19.6 km/h 61 % 0 mm
14:27 -5.7 °C -9.9 °C 34327.3 hPa ENE 15 km/h 15 km/h 62 % 0 mm
14:32 -5.7 °C -9.8 °C 34327.3 hPa ENE 15.3 km/h 15.3 km/h 63 % 0 mm
14:37 -5.8 °C -9.7 °C 34327.3 hPa ENE 26.9 km/h 26.9 km/h 64 % 0 mm
14:42 -5.9 °C -9.7 °C 34293.4 hPa ESE 26.9 km/h 26.9 km/h 65 % 0 mm
14:47 -5.9 °C -9.6 °C 34293.4 hPa ESE 20.9 km/h 20.9 km/h 66 % 0 mm
14:52 -5.8 °C -9.5 °C 34293.4 hPa NE 15 km/h 15 km/h 66 % 0 mm
14:57 -5.8 °C -9.5 °C 34256.2 hPa ESE 15 km/h 15 km/h 66 % 0 mm
15:02 -5.8 °C -9.5 °C 34256.2 hPa East 15 km/h 15 km/h 66 % 0 mm
15:07 -5.9 °C -9.7 °C 34256.2 hPa SSE 20.9 km/h 20.9 km/h 65 % 0 mm
15:12 -5.9 °C -9.7 °C 34256.2 hPa ENE 20.9 km/h 20.9 km/h 65 % 0 mm
15:17 -5.9 °C -9.7 °C 34256.2 hPa ESE 20.9 km/h 20.9 km/h 65 % 0 mm
15:22 -5.9 °C -9.6 °C 34256.2 hPa East 20.9 km/h 20.9 km/h 66 % 0 mm
15:27 -5.9 °C -9.6 °C 34256.2 hPa SE 17.9 km/h 17.9 km/h 66 % 0 mm
15:32 -5.9 °C -9.8 °C 34256.2 hPa ESE 19.6 km/h 19.6 km/h 65 % 0 mm
15:37 -6 °C -9.6 °C 34256.2 hPa SE 20.9 km/h 20.9 km/h 67 % 0 mm
15:42 -6 °C -9.6 °C 34256.2 hPa ENE 11.9 km/h 11.9 km/h 67 % 0 mm
15:47 -6.1 °C -9.6 °C 34256.2 hPa East 15 km/h 15 km/h 67 % 0 mm
15:52 -6.1 °C -9.6 °C 34256.2 hPa East 17.9 km/h 17.9 km/h 67 % 0 mm
15:57 -6.1 °C -9.5 °C 34256.2 hPa ESE 11.9 km/h 11.9 km/h 68 % 0 mm
16:02 -6.1 °C -9.4 °C 34256.2 hPa ENE 17.9 km/h 17.9 km/h 69 % 0 mm
16:07 -6.2 °C -9.4 °C 34256.2 hPa ESE 17.9 km/h 17.9 km/h 70 % 0 mm
16:12 -6.4 °C -9.6 °C 34256.2 hPa East 23.8 km/h 23.8 km/h 70 % 0 mm
16:17 -6.4 °C -9.4 °C 34256.2 hPa ESE 25.1 km/h 25.1 km/h 71 % 0 mm
16:22 -6.4 °C -9.3 °C 34256.2 hPa ESE 15 km/h 15 km/h 72 % 0 mm
16:27 -6.4 °C -9.3 °C 34256.2 hPa ESE 17.9 km/h 17.9 km/h 72 % 0 mm
16:32 -6.4 °C -9.2 °C 34256.2 hPa SE 9 km/h 9 km/h 73 % 0 mm
16:37 -6.4 °C -9.3 °C 34256.2 hPa ESE 23.8 km/h 23.8 km/h 72 % 0 mm
16:42 -6.5 °C -9.4 °C 34256.2 hPa ESE 26.9 km/h 26.9 km/h 72 % 0 mm
16:43 -6.5 °C -9.4 °C 34256.2 hPa SE 26.9 km/h 26.9 km/h 72 % 0 mm
16:48 -6.6 °C -9.4 °C 34256.2 hPa ESE 15 km/h 15 km/h 72 % 0 mm
16:53 -6.6 °C -9.4 °C 34256.2 hPa ENE 15 km/h 15 km/h 73 % 0 mm
16:58 -6.7 °C -9.4 °C 34256.2 hPa ESE 14.5 km/h 14.5 km/h 73 % 0 mm
17:03 -6.7 °C -9.3 °C 34256.2 hPa ENE 20.9 km/h 20.9 km/h 74 % 0 mm
17:08 -6.6 °C -9.3 °C 34256.2 hPa ESE 9.8 km/h 9.8 km/h 74 % 0 mm
17:13 -6.6 °C -9.3 °C 34256.2 hPa East 14 km/h 14 km/h 74 % 0 mm
17:18 -6.7 °C -9.2 °C 34256.2 hPa ESE 15 km/h 15 km/h 75 % 0 mm
17:23 -6.8 °C -9.3 °C 34256.2 hPa ENE 15 km/h 15 km/h 76 % 0 mm
17:28 -6.9 °C -9.3 °C 34222.3 hPa East 11.9 km/h 11.9 km/h 76 % 0 mm
17:33 -7.1 °C -9.3 °C 34222.3 hPa NW 14 km/h 14 km/h 77 % 0 mm
17:38 -7.1 °C -9.4 °C 34222.3 hPa ENE 7.6 km/h 7.6 km/h 77 % 0 mm
17:43 -7.2 °C -9.5 °C 34198.6 hPa NNE 15 km/h 15 km/h 77 % 0 mm
17:48 -7.2 °C -9.5 °C 34198.6 hPa ENE 15 km/h 15 km/h 77 % 0 mm
17:53 -7.2 °C -9.5 °C 34198.6 hPa NE 11.1 km/h 11.1 km/h 77 % 0 mm
17:58 -7.2 °C -9.5 °C 34222.3 hPa NNE 14 km/h 14 km/h 77 % 0 mm
18:03 -7.2 °C -9.5 °C 34222.3 hPa NNE 11.9 km/h 11.9 km/h 77 % 0 mm
18:08 -7.2 °C -9.5 °C 34222.3 hPa ENE 11.9 km/h 11.9 km/h 77 % 0 mm
18:13 -7.2 °C -9.5 °C 34198.6 hPa East 11.1 km/h 11.1 km/h 77 % 0 mm
18:18 -7.2 °C -9.5 °C 34198.6 hPa NNE 16.1 km/h 16.1 km/h 77 % 0 mm
18:23 -7.2 °C -9.5 °C 34198.6 hPa East 4.2 km/h   77 % 0 mm
18:28 -7.2 °C -9.3 °C 34198.6 hPa SE 11.9 km/h 11.9 km/h 78 % 0 mm
18:33 -7.2 °C -9.2 °C 34198.6 hPa ENE 8 km/h 8 km/h 79 % 0 mm
18:38 -7.2 °C -9.2 °C 34198.6 hPa SE 9.3 km/h 9.3 km/h 79 % 0 mm
18:43 -7.2 °C -9.1 °C 34222.3 hPa SW 9 km/h 9.8 km/h 80 % 0 mm
18:48 -7.9 °C -10.2 °C 34222.3 hPa SSW 26.9 km/h 26.9 km/h 77 % 0 mm
18:53 -8.6 °C -10.9 °C 34222.3 hPa WSW 23.8 km/h 23.8 km/h 76 % 0 mm
18:58 -9.3 °C -11.6 °C 34256.2 hPa SW 20.9 km/h 20.9 km/h 77 % 25.4 mm
19:03 -9.7 °C -11.8 °C 34256.2 hPa SSW 15.3 km/h 15.3 km/h 78 % 83.82 mm
19:08 -9.9 °C -12 °C 34256.2 hPa WSW 11.9 km/h 11.9 km/h 78 % 83.82 mm
19:13 -10 °C -12 °C 34293.4 hPa SW 6.3 km/h 6.3 km/h 79 % 83.82 mm
19:18 -10 °C -11.9 °C 34293.4 hPa West 6 km/h   80 % 83.82 mm
19:23 -10 °C -11.8 °C 34293.4 hPa NW 6 km/h   81 % 83.82 mm
19:28 -10 °C -11.7 °C 34293.4 hPa WSW 5.6 km/h 5.6 km/h 82 % 160.02 mm
19:33 -9.9 °C -11.6 °C 34293.4 hPa WNW 3.1 km/h   82 % 160.02 mm
19:38 -9.9 °C -11.5 °C 34293.4 hPa ENE 6.8 km/h 6.8 km/h 83 % 187.96 mm
19:43 -10 °C -11.6 °C 34256.2 hPa NNE 9 km/h 9 km/h 83 % 187.96 mm
19:48 -10 °C -11.5 °C 34256.2 hPa NE 6 km/h 6 km/h 84 % 187.96 mm
19:53 -10 °C -11.5 °C 34256.2 hPa Calm     84 % 187.96 mm
19:58 -10 °C -11.4 °C 34293.4 hPa Calm     85 % 160.02 mm
20:03 -9.9 °C -11.3 °C 34293.4 hPa NE 6 km/h 6 km/h 85 % 104.14 mm
20:08 -9.9 °C -11.3 °C 34293.4 hPa NNE 6 km/h 6 km/h 85 % 104.14 mm
20:13 -10.1 °C -11.4 °C 34293.4 hPa NNE 15 km/h 15 km/h 85 % 104.14 mm
20:18 -10.1 °C -11.3 °C 34293.4 hPa NNE 9 km/h 9 km/h 86 % 104.14 mm
20:23 -10.1 °C -11.3 °C 34293.4 hPa NNE 15 km/h 15 km/h 86 % 104.14 mm
20:28 -10.1 °C -11.3 °C 34293.4 hPa NNE 15 km/h 15 km/h 86 % 25.4 mm
20:33 -10.1 °C -11.2 °C 34293.4 hPa NNE 8.5 km/h 8.5 km/h 87 % 25.4 mm
20:38 -10 °C -11.2 °C 34293.4 hPa ENE 11.9 km/h 11.9 km/h 87 % 0 mm
20:43 -10.1 °C -11.2 °C 34222.3 hPa NNE 15 km/h 15 km/h 87 % 0 mm
20:48 -10 °C -11.1 °C 34222.3 hPa NNE 6.8 km/h 6.8 km/h 88 % 0 mm
20:53 -9.9 °C -11 °C 34222.3 hPa Calm     88 % 0 mm
20:58 -9.9 °C -10.9 °C 34256.2 hPa ENE 6 km/h 6 km/h 89 % 0 mm
21:03 -9.9 °C -10.9 °C 34256.2 hPa ENE 9 km/h 9 km/h 89 % 0 mm
21:08 -9.9 °C -10.9 °C 34256.2 hPa ENE 6 km/h 6 km/h 89 % 0 mm
21:13 -9.9 °C -10.9 °C 34256.2 hPa NE 6 km/h 6 km/h 89 % 0 mm
21:18 -9.8 °C -10.8 °C 34256.2 hPa NNE 3.7 km/h 3.7 km/h 89 % 109.22 mm
21:23 -9.8 °C -10.7 °C 34256.2 hPa ENE 3.1 km/h   90 % 109.22 mm
21:28 -9.8 °C -10.7 °C 34256.2 hPa NNE 3.1 km/h   90 % 109.22 mm
21:33 -9.8 °C -10.7 °C 34256.2 hPa Calm     90 % 109.22 mm
21:38 -9.7 °C -10.6 °C 34256.2 hPa Calm     90 % 109.22 mm
21:43 -9.7 °C -10.6 °C 34256.2 hPa NNE 4.2 km/h   90 % 109.22 mm
21:48 -9.7 °C -10.6 °C 34256.2 hPa NNE 6 km/h 6 km/h 90 % 109.22 mm
21:53 -9.7 °C -10.6 °C 34256.2 hPa NNE 6 km/h 6 km/h 90 % 109.22 mm
21:58 -9.7 °C -10.6 °C 34256.2 hPa NNE 9 km/h 9 km/h 90 % 109.22 mm
22:03 -9.7 °C -10.6 °C 34256.2 hPa Calm     90 % 109.22 mm
22:08 -9.7 °C -10.5 °C 34256.2 hPa Calm     91 % 109.22 mm
22:13 -9.7 °C -10.5 °C 34256.2 hPa Calm     91 % 109.22 mm
22:18 -9.7 °C -10.4 °C 34256.2 hPa ENE 6 km/h   91 % 0 mm
22:23 -9.7 °C -10.5 °C 34256.2 hPa Calm     91 % 0 mm
22:28 -9.7 °C -10.4 °C 34256.2 hPa Calm     91 % 0 mm
22:33 -9.7 °C -10.4 °C 34256.2 hPa Calm     91 % 0 mm
22:38 -9.7 °C -10.5 °C 34256.2 hPa Calm     91 % 0 mm
22:43 -9.7 °C -10.5 °C 34256.2 hPa SW 4.2 km/h   91 % 0 mm
22:48 -9.7 °C -10.4 °C 34256.2 hPa NNE 3.1 km/h 3.1 km/h 91 % 0 mm
22:53 -9.7 °C -10.4 °C 34256.2 hPa ENE 6 km/h 6 km/h 92 % 0 mm
22:58 -9.7 °C -10.4 °C 34222.3 hPa ESE 6 km/h 6 km/h 92 % 0 mm
23:00 -9.6 °C -10.1 °C 34198.6 hPa NE 2.6 km/h 5.1 km/h 94 % 0 mm
23:04 -9.7 °C -10.4 °C 34222.3 hPa East 3.7 km/h   92 % 0 mm
23:09 -9.7 °C -10.4 °C 34222.3 hPa East 3.1 km/h 3.1 km/h 92 % 0 mm
23:10 -9.6 °C -10.1 °C 34198.6 hPa NE 5.1 km/h 7.7 km/h 94 % 0 mm
23:14 -9.7 °C -10.4 °C 34222.3 hPa Calm     92 % 0 mm
23:19 -9.7 °C -10.4 °C 34222.3 hPa NNE 6 km/h 6 km/h 92 % 0 mm
23:20 -9.6 °C -10.1 °C 34198.6 hPa NE 2.6 km/h 7.7 km/h 94 % 0 mm
23:24 -9.7 °C -10.4 °C 34222.3 hPa ESE 6.3 km/h 6.3 km/h 92 % 0 mm
23:29 -9.7 °C -10.4 °C 34256.2 hPa ESE 9.3 km/h 9.3 km/h 92 % 0 mm
23:30 -9.6 °C -10 °C 34198.6 hPa Calm   2.6 km/h 95 % 0 mm
23:34 -9.7 °C -10.4 °C 34256.2 hPa Calm     92 % 0 mm
23:39 -9.7 °C -10.4 °C 34256.2 hPa Calm     92 % 0 mm
23:40 -9.5 °C -9.9 °C 34198.6 hPa Calm     95 % 25.4 mm
23:44 -9.7 °C -10.4 °C 34222.3 hPa Calm     92 % 0 mm
23:49 -9.7 °C -10.4 °C 34222.3 hPa West 6.3 km/h 6.3 km/h 92 % 0 mm
23:50 -9.5 °C -9.9 °C 34198.6 hPa NNE 5.1 km/h 10.3 km/h 95 % 25.4 mm
23:54 -9.7 °C -10.4 °C 34222.3 hPa Calm     91 % 0 mm
23:59 -9.7 °C -10.4 °C 34256.2 hPa Calm     92 % 0 mm
Meteo Sesrovires
Elogis d' Weather Underground - 2 mb

Guio original per  Jim McMurry - jmcmurry@mwt.net Adaptat per a la plantilla per  Wim van der Kuil - Leuven-Template.eu

Trobareu la nostra informacio del temps tambe a:

Weather Underground

AWEKAS